Time;durP1;ratioP1;P1;durP2;ratioP2;P2;SDS_P1;SDS_P2;PMS_P1;PMS_P2;Temp;Humidity;BMP_temperature;BMP_pressure;BME280_temperature;BME280_humidity;BME280_pressure;Samples;Min_cycle;Max_cycle;Signal;HPM_P1;HPM_P2
2021/05/29 00:01:19;;;;;;;5.25;2.80;;;;;;;13.57;61.25;100420.03;5056162;28;20041;-74
2021/05/29 00:03:48;;;;;;;3.95;2.90;;;;;;;13.58;61.45;100424.41;5056256;28;20056;-75
2021/05/29 00:06:16;;;;;;;5.75;2.97;;;;;;;13.59;61.31;100423.44;5054863;28;20136;-75
2021/05/29 00:08:45;;;;;;;4.13;3.00;;;;;;;13.75;60.81;100424.09;5056378;28;20409;-75
2021/05/29 00:11:13;;;;;;;4.95;2.90;;;;;;;13.72;60.83;100416.28;5056411;28;20076;-75
2021/05/29 00:13:41;;;;;;;4.78;3.08;;;;;;;13.64;61.46;100413.28;5055871;28;20378;-75
2021/05/29 00:16:10;;;;;;;4.90;2.90;;;;;;;13.56;61.59;100418.31;5056106;28;20478;-75
2021/05/29 00:18:38;;;;;;;5.28;3.00;;;;;;;13.56;61.73;100409.41;5056003;28;20095;-77
2021/05/29 00:21:06;;;;;;;4.70;3.03;;;;;;;13.59;61.73;100410.06;5056451;28;20042;-73
2021/05/29 00:23:35;;;;;;;5.07;3.00;;;;;;;13.56;61.72;100410.28;5055814;28;20072;-73
2021/05/29 00:26:05;;;;;;;6.20;3.20;;;;;;;13.48;62.26;100403.72;5055834;28;20051;-72
2021/05/29 00:28:35;;;;;;;4.18;2.95;;;;;;;13.56;62.04;100407.59;5054826;28;20461;-72
2021/05/29 00:31:05;;;;;;;5.00;2.67;;;;;;;13.46;62.28;100398.50;5055883;28;20449;-75
2021/05/29 00:33:33;;;;;;;5.50;2.90;;;;;;;13.38;62.56;100400.84;5055876;28;20402;-74
2021/05/29 00:36:01;;;;;;;5.07;3.33;;;;;;;13.36;62.70;100394.72;5055837;28;20045;-75
2021/05/29 00:38:30;;;;;;;6.45;3.25;;;;;;;13.41;62.68;100401.50;5055458;28;20049;-74
2021/05/29 00:40:58;;;;;;;4.28;3.05;;;;;;;13.53;62.12;100391.75;5055729;28;20049;-74
2021/05/29 00:43:27;;;;;;;8.30;3.45;;;;;;;13.42;62.67;100388.97;5055279;28;20118;-76
2021/05/29 00:45:54;;;;;;;6.53;3.55;;;;;;;13.37;63.19;100385.72;5055862;28;20045;-74
2021/05/29 00:48:23;;;;;;;4.38;3.13;;;;;;;13.26;63.68;100386.47;5055516;28;20040;-77
2021/05/29 00:50:58;;;;;;;5.40;3.42;;;;;;;13.30;63.51;100385.28;5055776;28;20045;-77
2021/05/29 00:53:27;;;;;;;6.68;3.65;;;;;;;13.25;63.90;100381.22;5055233;28;20049;-77
2021/05/29 00:55:55;;;;;;;4.90;3.17;;;;;;;13.23;63.70;100375.97;5055554;28;20379;-78
2021/05/29 00:58:25;;;;;;;6.85;3.70;;;;;;;13.23;64.06;100377.81;5055912;28;20055;-77
2021/05/29 01:00:54;;;;;;;6.63;3.60;;;;;;;13.23;64.17;100377.81;5055674;28;20041;-73
2021/05/29 01:03:23;;;;;;;4.07;3.17;;;;;;;13.16;64.32;100380.88;5055047;28;20059;-72
2021/05/29 01:05:52;;;;;;;4.45;3.35;;;;;;;13.09;64.62;100376.03;5055483;28;20390;-72
2021/05/29 01:08:24;;;;;;;5.35;3.53;;;;;;;13.11;64.68;100376.78;5055116;28;20095;-71
2021/05/29 01:10:52;;;;;;;5.20;3.33;;;;;;;13.01;65.07;100379.22;5055467;28;20041;-71
2021/05/29 01:13:24;;;;;;;5.55;3.95;;;;;;;13.10;64.87;100372.38;5055130;28;20474;-71
2021/05/29 01:15:55;;;;;;;5.82;4.00;;;;;;;13.00;65.49;100372.16;5055391;28;20520;-72
2021/05/29 01:18:23;;;;;;;5.55;3.55;;;;;;;13.03;65.18;100368.44;5054866;28;20095;-72
2021/05/29 01:20:52;;;;;;;5.75;3.75;;;;;;;13.02;65.15;100370.22;5055034;28;20075;-72
2021/05/29 01:23:21;;;;;;;6.82;4.10;;;;;;;12.90;65.79;100371.06;5054999;28;20043;-71
2021/05/29 01:25:48;;;;;;;5.82;3.80;;;;;;;12.90;65.62;100366.56;5053965;28;20060;-72
2021/05/29 01:28:19;;;;;;;5.03;3.90;;;;;;;12.91;65.90;100380.81;5054914;28;20052;-72
2021/05/29 01:30:50;;;;;;;6.03;4.05;;;;;;;12.84;66.12;100375.03;5054977;28;20098;-72
2021/05/29 01:33:20;;;;;;;5.93;4.10;;;;;;;12.89;66.05;100374.72;5055074;28;20036;-72
2021/05/29 01:35:49;;;;;;;7.68;4.45;;;;;;;12.80;66.45;100386.03;5054625;28;20047;-72
2021/05/29 01:38:18;;;;;;;7.38;4.32;;;;;;;12.78;66.60;100371.91;5054684;28;20115;-74
2021/05/29 01:40:48;;;;;;;7.88;4.60;;;;;;;12.65;67.35;100377.22;5054423;28;20049;-74
2021/05/29 01:43:17;;;;;;;6.88;4.75;;;;;;;12.75;66.89;100375.66;5054581;28;20400;-73
2021/05/29 01:45:46;;;;;;;7.15;4.70;;;;;;;12.78;66.79;100378.13;5054349;28;20098;-74
2021/05/29 01:48:17;;;;;;;6.45;4.47;;;;;;;12.76;66.84;100374.69;5054489;28;20041;-74
2021/05/29 01:50:49;;;;;;;5.93;4.40;;;;;;;12.79;67.01;100376.28;5054219;28;20091;-74
2021/05/29 01:53:19;;;;;;;6.25;4.68;;;;;;;12.78;67.04;100374.59;5054714;28;20040;-74
2021/05/29 01:55:49;;;;;;;6.63;4.85;;;;;;;12.69;67.34;100373.38;5054057;28;20045;-74
2021/05/29 01:58:17;;;;;;;7.63;4.68;;;;;;;12.67;67.36;100372.63;5054379;28;20128;-74
2021/05/29 02:00:46;;;;;;;7.63;4.65;;;;;;;12.61;67.83;100368.53;5052946;28;20052;-74
2021/05/29 02:03:14;;;;;;;6.28;4.90;;;;;;;12.55;68.07;100366.28;5054340;28;20049;-73
2021/05/29 02:05:42;;;;;;;6.50;5.13;;;;;;;12.62;67.75;100361.38;5053069;28;20410;-74
2021/05/29 02:08:11;;;;;;;7.18;5.00;;;;;;;12.53;68.10;100362.84;5053865;28;20136;-72
2021/05/29 02:10:44;;;;;;;7.97;4.75;;;;;;;12.55;68.30;100357.41;5053710;28;20464;-72
2021/05/29 02:13:22;;;;;;;7.80;5.18;;;;;;;12.49;68.55;100352.44;5054201;28;20045;-73
2021/05/29 02:15:51;;;;;;;10.15;5.35;;;;;;;12.52;68.63;100353.09;5053985;28;20048;-72
2021/05/29 02:18:20;;;;;;;6.82;4.93;;;;;;;12.43;69.08;100356.38;5053895;28;20048;-70
2021/05/29 02:20:50;;;;;;;7.45;5.38;;;;;;;12.57;68.75;100353.66;5053644;28;20086;-70
2021/05/29 02:23:21;;;;;;;8.35;5.60;;;;;;;12.59;68.59;100357.09;5053979;28;20045;-72
2021/05/29 02:25:50;;;;;;;8.85;5.80;;;;;;;12.51;68.87;100353.19;5053601;28;20059;-73
2021/05/29 02:28:20;;;;;;;7.22;5.72;;;;;;;12.44;69.27;100352.72;5053864;28;20037;-73
2021/05/29 02:30:50;;;;;;;7.90;6.07;;;;;;;12.40;69.41;100351.25;5053279;28;20069;-73
2021/05/29 02:33:18;;;;;;;6.65;5.05;;;;;;;12.47;69.36;100351.69;5052759;28;20053;-74
2021/05/29 02:35:46;;;;;;;7.75;5.70;;;;;;;12.53;68.83;100357.47;5053056;28;20052;-73
2021/05/29 02:38:17;;;;;;;7.93;5.53;;;;;;;12.44;69.24;100352.72;5053427;28;20124;-73
2021/05/29 02:40:47;;;;;;;7.07;5.53;;;;;;;12.44;69.39;100351.88;5053260;28;20083;-73
2021/05/29 02:43:15;;;;;;;9.70;5.72;;;;;;;12.36;69.57;100340.84;5052224;28;20080;-73
2021/05/29 02:45:44;;;;;;;7.57;5.70;;;;;;;12.39;69.63;100341.50;5053166;28;20119;-73
2021/05/29 02:48:13;;;;;;;8.95;5.97;;;;;;;12.29;70.05;100345.75;5053225;28;20045;-73
2021/05/29 02:50:43;;;;;;;7.60;6.00;;;;;;;12.33;70.09;100356.13;5052846;28;20041;-73
2021/05/29 02:53:12;;;;;;;7.80;5.93;;;;;;;12.30;70.21;100350.13;5053277;28;20613;-74
2021/05/29 02:55:42;;;;;;;6.55;5.28;;;;;;;12.34;69.92;100346.28;5053354;28;20052;-72
2021/05/29 02:58:10;;;;;;;7.22;5.65;;;;;;;12.37;70.05;100351.44;5053085;28;20044;-73
2021/05/29 03:00:40;;;;;;;8.32;5.65;;;;;;;12.33;70.20;100350.78;5052743;28;20045;-74
2021/05/29 03:03:09;;;;;;;8.85;5.75;;;;;;;12.36;69.87;100355.09;5053156;28;20374;-73
2021/05/29 03:05:38;;;;;;;8.52;5.72;;;;;;;12.32;70.46;100348.19;5052862;28;20111;-73
2021/05/29 03:08:06;;;;;;;8.93;5.80;;;;;;;12.43;69.93;100353.69;5052947;28;20052;-73
2021/05/29 03:10:34;;;;;;;7.30;5.75;;;;;;;12.38;70.03;100346.97;5052616;28;20102;-73
2021/05/29 03:13:06;;;;;;;7.85;5.75;;;;;;;12.40;70.30;100347.72;5052966;28;20099;-72
2021/05/29 03:15:35;;;;;;;8.30;5.78;;;;;;;12.39;70.38;100349.53;5052359;28;20124;-73
2021/05/29 03:18:05;;;;;;;8.85;5.70;;;;;;;12.55;69.54;100352.91;5052561;28;20114;-74
2021/05/29 03:20:35;;;;;;;8.05;5.50;;;;;;;12.49;69.69;100355.97;5052799;28;20041;-75
2021/05/29 03:23:03;;;;;;;6.95;5.50;;;;;;;12.42;69.99;100360.00;5053248;28;20099;-74
2021/05/29 03:25:31;;;;;;;6.80;5.07;;;;;;;12.45;69.99;100357.16;5052517;28;20049;-75
2021/05/29 03:27:59;;;;;;;6.75;5.13;;;;;;;12.43;70.04;100356.38;5051305;28;20052;-73
2021/05/29 03:30:29;;;;;;;8.23;5.53;;;;;;;12.49;69.90;100355.13;5052617;28;20132;-74
2021/05/29 03:32:58;;;;;;;8.20;5.13;;;;;;;12.58;69.39;100355.38;5052945;28;20049;-73
2021/05/29 03:35:26;;;;;;;7.40;5.55;;;;;;;12.49;69.93;100350.63;5053069;28;20075;-71
2021/05/29 03:37:55;;;;;;;6.65;4.90;;;;;;;12.51;69.56;100351.38;5052410;28;20095;-72
2021/05/29 03:40:23;;;;;;;7.28;5.40;;;;;;;12.57;69.31;100360.81;5052731;28;20041;-74
2021/05/29 03:42:51;;;;;;;10.13;5.68;;;;;;;12.47;69.75;100352.56;5052108;28;20183;-72
2021/05/29 03:45:21;;;;;;;8.73;5.65;;;;;;;12.47;69.62;100347.19;5052813;28;20440;-74
2021/05/29 03:47:50;;;;;;;11.43;5.40;;;;;;;12.53;69.35;100352.13;5052307;28;20052;-75
2021/05/29 03:50:20;;;;;;;9.30;5.15;;;;;;;12.50;69.60;100347.00;5052537;28;20562;-75
2021/05/29 03:52:48;;;;;;;7.70;5.35;;;;;;;12.47;69.81;100357.91;5052223;28;20087;-74
2021/05/29 03:55:18;;;;;;;7.53;5.30;;;;;;;12.59;69.44;100356.22;5052749;28;20584;-73
2021/05/29 03:57:48;;;;;;;7.20;5.07;;;;;;;12.52;69.70;100360.25;5052387;28;20052;-73
2021/05/29 04:00:20;;;;;;;8.95;5.80;;;;;;;12.48;70.12;100359.63;5052526;28;20080;-73
2021/05/29 04:02:48;;;;;;;7.93;5.18;;;;;;;12.57;69.50;100364.34;5051355;28;20063;-73
2021/05/29 04:05:20;;;;;;;7.78;5.18;;;;;;;12.75;68.51;100361.41;5051762;28;20461;-70
2021/05/29 04:07:48;;;;;;;9.20;5.10;;;;;;;12.77;68.68;100360.34;5052022;28;20506;-74
2021/05/29 04:10:19;;;;;;;8.88;5.30;;;;;;;12.79;68.46;100369.13;5052650;28;20068;-73
2021/05/29 04:12:48;;;;;;;6.70;5.15;;;;;;;12.83;68.24;100369.75;5052154;28;20044;-73
2021/05/29 04:15:17;;;;;;;7.15;4.88;;;;;;;12.83;67.86;100380.47;5052419;28;20048;-73
2021/05/29 04:17:46;;;;;;;7.68;5.43;;;;;;;12.81;68.16;100383.25;5051989;28;20045;-74
2021/05/29 04:20:17;;;;;;;7.65;5.40;;;;;;;12.77;68.60;100389.78;5052136;28;20490;-74
2021/05/29 04:22:45;;;;;;;6.28;4.95;;;;;;;12.81;68.34;100388.59;5052717;28;20079;-72
2021/05/29 04:25:16;;;;;;;6.97;4.82;;;;;;;12.81;68.51;100385.94;5052797;28;20466;-73
2021/05/29 04:27:45;;;;;;;8.13;5.55;;;;;;;12.90;68.52;100382.63;5052541;28;20467;-73
2021/05/29 04:30:17;;;;;;;6.43;5.25;;;;;;;12.87;68.21;100382.00;5055928;28;20520;-74
2021/05/29 04:32:46;;;;;;;8.55;5.68;;;;;;;12.90;68.29;100381.78;5055619;28;20052;-72
2021/05/29 04:35:18;;;;;;;7.53;5.18;;;;;;;12.94;68.11;100385.97;5056128;28;20500;-74
2021/05/29 04:37:47;;;;;;;7.35;5.32;;;;;;;12.91;68.35;100394.19;5055328;28;20049;-73
2021/05/29 04:40:17;;;;;;;7.82;5.60;;;;;;;12.86;68.83;100397.19;5055722;28;20497;-73
2021/05/29 04:42:50;;;;;;;9.32;5.43;;;;;;;12.92;68.80;100390.56;5055118;28;20053;-74
2021/05/29 04:45:19;;;;;;;8.43;5.68;;;;;;;12.87;69.12;100387.34;5055614;28;20478;-74
2021/05/29 04:47:47;;;;;;;7.68;5.72;;;;;;;12.93;68.71;100392.28;5055281;28;20067;-74
2021/05/29 04:50:16;;;;;;;7.75;5.60;;;;;;;12.95;68.77;100390.38;5055473;28;20049;-74
2021/05/29 04:52:44;;;;;;;8.07;5.80;;;;;;;13.09;68.12;100387.59;5055259;28;20094;-74
2021/05/29 04:55:15;;;;;;;8.57;5.55;;;;;;;13.22;67.94;100400.16;5055537;28;20414;-73
2021/05/29 04:57:44;;;;;;;7.35;5.35;;;;;;;13.25;67.72;100391.94;5054936;28;20428;-74
2021/05/29 05:00:15;;;;;;;8.13;5.32;;;;;;;13.35;67.26;100395.69;5055582;28;20120;-73
2021/05/29 05:02:44;;;;;;;7.18;5.88;;;;;;;13.26;67.31;100388.31;5055473;28;20033;-73
2021/05/29 05:05:13;;;;;;;7.47;5.28;;;;;;;13.37;66.83;100377.69;5055331;28;20041;-73
2021/05/29 05:07:40;;;;;;;6.38;5.10;;;;;;;13.44;67.07;100376.31;5054976;28;20041;-73
2021/05/29 05:10:10;;;;;;;7.57;5.30;;;;;;;13.63;66.56;100384.78;5055049;28;20056;-72
2021/05/29 05:12:38;;;;;;;7.45;5.53;;;;;;;13.66;66.12;100391.72;5053887;28;20107;-78
2021/05/29 05:15:08;;;;;;;6.25;5.13;;;;;;;13.65;66.25;100388.19;5055087;28;20379;-74
2021/05/29 05:17:36;;;;;;;9.18;5.90;;;;;;;13.73;66.13;100383.16;5055048;28;20133;-74
2021/05/29 05:20:05;;;;;;;8.82;6.00;;;;;;;13.80;66.18;100380.00;5054950;28;20049;-73
2021/05/29 05:22:33;;;;;;;7.03;5.32;;;;;;;13.87;65.64;100382.16;5054987;28;20044;-74
2021/05/29 05:25:03;;;;;;;7.18;5.47;;;;;;;13.93;65.18;100388.91;5054468;28;20076;-73
2021/05/29 05:27:31;;;;;;;7.75;5.57;;;;;;;13.97;65.45;100393.06;5054886;28;20094;-74
2021/05/29 05:29:59;;;;;;;7.53;5.38;;;;;;;14.00;65.10;100385.69;5054427;28;20076;-74
2021/05/29 05:32:27;;;;;;;8.07;5.47;;;;;;;14.32;63.96;100386.00;5054753;28;20498;-73
2021/05/29 05:34:56;;;;;;;7.13;5.15;;;;;;;14.42;63.37;100382.66;5054441;28;20045;-73
2021/05/29 05:37:23;;;;;;;7.95;5.45;;;;;;;14.81;61.95;100385.06;5054605;28;20490;-73
2021/05/29 05:39:51;;;;;;;7.10;5.18;;;;;;;15.13;60.93;100387.97;5053371;28;20098;-74
2021/05/29 05:42:19;;;;;;;8.30;5.32;;;;;;;15.36;60.75;100383.50;5054689;28;20122;-74
2021/05/29 05:44:47;;;;;;;7.07;5.35;;;;;;;15.40;60.32;100378.75;5054439;28;20470;-74
2021/05/29 05:47:15;;;;;;;6.53;5.00;;;;;;;15.37;60.26;100385.22;5054380;28;20045;-74
2021/05/29 05:49:45;;;;;;;8.02;5.05;;;;;;;15.55;60.62;100385.63;5054123;28;20049;-72
2021/05/29 05:52:15;;;;;;;9.13;5.15;;;;;;;15.75;59.13;100378.69;5054641;28;20114;-73
2021/05/29 05:54:43;;;;;;;7.45;5.28;;;;;;;15.79;59.33;100376.59;5053946;28;20052;-73
2021/05/29 05:57:11;;;;;;;6.50;5.28;;;;;;;15.80;59.39;100378.31;5054310;28;20401;-73
2021/05/29 05:59:39;;;;;;;7.55;5.38;;;;;;;15.94;58.25;100384.31;5054292;28;20041;-74
2021/05/29 06:02:07;;;;;;;7.05;5.50;;;;;;;16.16;58.10;100382.56;5054247;28;20045;-74
2021/05/29 06:04:35;;;;;;;9.05;5.38;;;;;;;16.06;58.24;100393.22;5054041;28;20108;-74
2021/05/29 06:07:03;;;;;;;7.30;5.07;;;;;;;16.18;58.01;100392.22;5053693;28;20525;-74
2021/05/29 06:09:32;;;;;;;7.50;5.18;;;;;;;16.19;58.17;100387.69;5054166;28;20075;-74
2021/05/29 06:11:59;;;;;;;7.57;5.25;;;;;;;16.16;58.22;100387.97;5053699;28;20048;-73
2021/05/29 06:19:59;;;;;;;6.30;5.05;;;;;;;16.36;56.68;100387.19;5052889;28;20080;-76
2021/05/29 06:22:27;;;;;;;7.72;4.97;;;;;;;16.51;56.61;100394.00;5053641;28;20098;-78
2021/05/29 06:24:56;;;;;;;6.75;5.13;;;;;;;16.46;56.84;100392.66;5053730;28;20056;-78
2021/05/29 06:27:23;;;;;;;6.88;4.80;;;;;;;16.50;57.39;100386.91;5053563;28;20045;-74
2021/05/29 06:29:51;;;;;;;7.07;4.88;;;;;;;16.36;57.36;100397.09;5052239;28;20402;-74
2021/05/29 06:32:19;;;;;;;7.43;4.70;;;;;;;16.42;57.16;100400.16;5053501;28;20049;-73
2021/05/29 06:34:47;;;;;;;5.93;4.82;;;;;;;16.74;56.21;100400.19;5053278;28;20062;-72
2021/05/29 06:37:17;;;;;;;7.28;4.85;;;;;;;16.90;56.72;100399.78;5053532;28;20041;-72
2021/05/29 06:39:45;;;;;;;7.45;4.95;;;;;;;16.68;56.22;100399.81;5052881;28;20091;-77
2021/05/29 06:42:14;;;;;;;6.50;4.57;;;;;;;16.57;56.64;100390.78;5053417;28;20052;-73
2021/05/29 06:44:42;;;;;;;6.13;4.80;;;;;;;16.68;56.59;100394.41;5053636;28;20083;-74
2021/05/29 06:47:10;;;;;;;7.45;4.50;;;;;;;16.75;56.27;100390.28;5053137;28;20049;-75
2021/05/29 06:49:39;;;;;;;7.13;4.57;;;;;;;16.77;55.85;100391.00;5053125;28;20045;-73
2021/05/29 06:52:08;;;;;;;7.35;5.03;;;;;;;17.08;54.74;100395.53;5052607;28;20102;-74
2021/05/29 06:54:47;;;;;;;8.10;4.70;;;;;;;17.27;54.89;100392.09;5053701;28;20037;-73
2021/05/29 07:00:03;;;;;;;6.60;4.43;;;;;;;17.09;55.26;100385.59;5052800;28;20048;-76
2021/05/29 07:02:33;;;;;;;7.65;4.28;;;;;;;17.32;55.32;100383.63;5053107;28;20041;-71
2021/05/29 07:05:01;;;;;;;7.20;4.72;;;;;;;17.70;53.78;100378.47;5052923;28;20069;-80
2021/05/29 07:07:30;;;;;;;8.77;4.35;;;;;;;17.73;53.46;100377.34;5053176;28;20068;-79
2021/05/29 07:09:58;;;;;;;6.53;4.80;;;;;;;18.26;53.49;100366.31;5052749;28;20040;-77
2021/05/29 07:12:27;;;;;;;7.28;4.65;;;;;;;18.51;52.36;100373.88;5053157;28;20044;-77
2021/05/29 07:14:55;;;;;;;6.22;4.20;;;;;;;18.42;51.26;100376.56;5052880;28;20123;-74
2021/05/29 07:17:29;;;;;;;5.88;4.10;;;;;;;18.23;51.31;100367.41;5052575;28;20045;-73
2021/05/29 07:19:57;;;;;;;7.30;4.75;;;;;;;18.16;51.45;100373.53;5053086;28;20045;-70
2021/05/29 07:22:25;;;;;;;6.70;4.38;;;;;;;18.51;50.52;100367.63;5052795;28;20041;-72
2021/05/29 07:24:52;;;;;;;6.70;4.47;;;;;;;18.39;50.52;100369.59;5052779;28;20051;-71
2021/05/29 07:27:20;;;;;;;6.10;4.07;;;;;;;18.01;51.55;100373.06;5052674;28;20060;-72
2021/05/29 07:29:49;;;;;;;7.93;3.85;;;;;;;17.97;52.17;100374.31;5052589;28;20071;-73
2021/05/29 07:32:17;;;;;;;8.10;4.35;;;;;;;18.62;49.90;100383.69;5052563;28;20049;-75
2021/05/29 07:34:44;;;;;;;7.90;4.05;;;;;;;18.67;49.35;100373.38;5052889;28;20044;-76
2021/05/29 07:37:12;;;;;;;4.85;3.97;;;;;;;18.27;50.77;100376.97;5052233;28;20041;-77
2021/05/29 07:39:40;;;;;;;6.03;4.13;;;;;;;18.10;51.10;100377.63;5052905;28;20041;-76
2021/05/29 07:42:08;;;;;;;5.10;3.60;;;;;;;18.01;51.88;100381.16;5052330;28;20132;-68
2021/05/29 07:44:37;;;;;;;5.40;4.07;;;;;;;18.24;51.07;100371.00;5052778;28;20144;-73
2021/05/29 07:47:06;;;;;;;6.72;3.75;;;;;;;18.30;51.25;100367.72;5052691;28;20367;-74
2021/05/29 07:49:33;;;;;;;5.13;3.70;;;;;;;18.55;50.72;100369.06;5056742;28;20049;-75
2021/05/29 07:52:11;;;;;;;5.80;3.60;;;;;;;18.61;49.65;100368.47;5052207;28;20053;-74
2021/05/29 07:54:39;;;;;;;6.40;3.83;;;;;;;18.27;50.71;100371.56;5052245;28;20045;-75
2021/05/29 07:57:09;;;;;;;7.05;3.97;;;;;;;18.15;52.09;100375.38;5052083;28;20497;-75
2021/05/29 07:59:37;;;;;;;5.28;3.53;;;;;;;17.66;52.94;100377.00;5052343;28;20073;-75
2021/05/29 08:02:06;;;;;;;5.88;3.78;;;;;;;17.63;52.77;100388.03;5052313;28;20044;-77
2021/05/29 08:04:34;;;;;;;6.97;4.45;;;;;;;17.51;52.12;100381.03;5056042;28;20044;-74
2021/05/29 08:07:03;;;;;;;7.32;4.47;;;;;;;17.41;53.47;100382.81;5055930;28;20041;-85
2021/05/29 08:09:31;;;;;;;6.97;4.10;;;;;;;17.39;53.98;100384.81;5056050;28;20431;-74
2021/05/29 08:11:59;;;;;;;6.00;3.83;;;;;;;17.41;54.52;100377.44;5056089;28;20040;-74
2021/05/29 08:14:27;;;;;;;6.18;4.00;;;;;;;17.25;53.86;100377.03;5056002;28;20079;-72
2021/05/29 08:16:57;;;;;;;7.47;4.55;;;;;;;17.13;53.78;100379.81;5056331;28;20099;-73
2021/05/29 08:19:26;;;;;;;5.70;4.10;;;;;;;17.39;54.06;100379.41;5055798;28;20397;-75
2021/05/29 08:21:54;;;;;;;5.25;3.50;;;;;;;17.23;54.22;100373.63;5054770;28;20498;-74
2021/05/29 08:24:22;;;;;;;6.75;4.13;;;;;;;17.38;53.74;100378.56;5056017;28;20056;-75
2021/05/29 08:26:53;;;;;;;5.15;3.75;;;;;;;17.67;54.01;100359.84;5056117;28;20474;-74
2021/05/29 08:29:21;;;;;;;5.70;3.60;;;;;;;17.73;53.17;100361.16;5054780;28;20044;-75
2021/05/29 08:31:49;;;;;;;6.97;4.50;;;;;;;17.35;54.30;100356.38;5055084;28;20044;-75
2021/05/29 08:34:17;;;;;;;8.57;3.90;;;;;;;17.61;54.69;100360.38;5055109;28;20055;-74
2021/05/29 08:36:46;;;;;;;8.35;4.10;;;;;;;17.82;54.43;100356.78;5056082;28;20048;-74
2021/05/29 08:39:14;;;;;;;6.60;4.68;;;;;;;17.95;52.75;100357.41;5055362;28;20500;-74
2021/05/29 08:41:42;;;;;;;8.82;4.18;;;;;;;18.04;53.51;100359.28;5055884;28;20041;-76
2021/05/29 08:44:10;;;;;;;5.70;4.00;;;;;;;18.12;53.52;100366.69;5055531;28;20049;-76
2021/05/29 08:46:39;;;;;;;6.57;4.00;;;;;;;18.04;53.41;100372.78;5055495;28;20044;-72
2021/05/29 08:49:07;;;;;;;5.28;3.83;;;;;;;18.05;52.45;100362.81;5055217;28;20041;-73
2021/05/29 08:51:35;;;;;;;6.57;3.83;;;;;;;18.07;52.14;100369.81;5055524;28;20037;-72
2021/05/29 08:54:05;;;;;;;5.68;3.78;;;;;;;18.46;51.89;100359.94;5055445;28;20040;-72
2021/05/29 08:56:33;;;;;;;5.07;3.80;;;;;;;18.66;49.88;100360.84;5055329;28;20051;-71
2021/05/29 08:59:01;;;;;;;5.30;3.53;;;;;;;18.39;51.12;100352.53;5054443;28;20055;-71
2021/05/29 09:01:29;;;;;;;6.90;4.03;;;;;;;18.65;49.83;100347.50;5054996;28;20457;-74
2021/05/29 09:03:59;;;;;;;5.68;3.55;;;;;;;18.81;49.63;100354.00;5055254;28;20068;-74
2021/05/29 09:06:42;;;;;;;8.80;3.55;;;;;;;19.22;49.45;100343.03;5055160;28;20041;-71
2021/05/29 09:09:12;;;;;;;4.63;2.63;;;;;;;18.98;48.72;100343.50;5055151;28;20048;-72
2021/05/29 09:11:45;;;;;;;5.90;3.05;;;;;;;18.96;48.88;100340.94;5053920;28;20048;-71
2021/05/29 09:14:39;;;;;;;5.05;3.33;;;;;;;18.95;49.24;100350.03;5054672;28;20132;-70
2021/05/29 09:17:18;;;;;;;5.32;3.40;;;;;;;19.11;48.30;100349.47;5055130;28;20095;-81
2021/05/29 09:20:02;;;;;;;5.60;3.35;;;;;;;19.28;48.87;100343.28;5055435;28;20500;-69
2021/05/29 09:22:33;;;;;;;6.03;3.22;;;;;;;19.43;48.38;100344.53;5054625;28;20379;-70
2021/05/29 09:25:08;;;;;;;4.95;2.88;;;;;;;19.20;48.09;100337.75;5054909;28;20041;-69
2021/05/29 09:27:40;;;;;;;4.40;2.90;;;;;;;19.41;47.69;100334.88;5054766;28;20506;-72
2021/05/29 09:30:09;;;;;;;5.57;3.22;;;;;;;19.61;46.91;100330.28;5054580;28;20049;-80
2021/05/29 09:32:38;;;;;;;6.25;3.50;;;;;;;19.43;47.79;100335.56;5054817;28;20053;-71
2021/05/29 09:35:08;;;;;;;3.90;2.08;;;;;;;19.01;46.33;100333.25;5054738;28;20434;-71
2021/05/29 09:37:37;;;;;;;4.15;1.90;;;;;;;18.88;45.25;100348.91;5055180;28;20036;-73
2021/05/29 09:40:09;;;;;;;5.13;2.10;;;;;;;19.08;44.45;100344.31;5054542;28;20110;-71
2021/05/29 09:42:38;;;;;;;5.35;1.80;;;;;;;19.16;43.75;100339.06;5055057;28;20115;-71
2021/05/29 09:45:25;;;;;;;3.58;1.98;;;;;;;19.14;43.99;100339.19;5054615;28;20516;-69
2021/05/29 09:48:12;;;;;;;3.42;1.85;;;;;;;19.41;43.12;100335.72;5054726;28;20056;-70
2021/05/29 09:51:01;;;;;;;2.60;1.38;;;;;;;19.21;43.60;100338.63;5054565;28;20037;-70
2021/05/29 09:53:30;;;;;;;3.33;1.83;;;;;;;19.37;44.04;100334.28;5053962;28;20049;-70
2021/05/29 09:56:00;;;;;;;2.95;1.75;;;;;;;19.15;43.08;100338.19;5054126;28;20124;-69
2021/05/29 09:58:52;;;;;;;5.45;1.88;;;;;;;19.19;43.79;100335.19;5054168;28;20494;-70
2021/05/29 10:01:45;;;;;;;3.45;2.05;;;;;;;19.32;42.48;100320.38;5052263;28;20132;-70
2021/05/29 10:04:16;;;;;;;4.07;1.93;;;;;;;19.40;43.60;100322.34;5044557;28;20136;-74
2021/05/29 10:06:54;;;;;;;5.18;2.05;;;;;;;19.54;43.94;100331.84;5054488;28;20047;-70
2021/05/29 10:09:23;;;;;;;2.80;1.80;;;;;;;19.38;43.97;100311.66;5053927;28;20094;-71
2021/05/29 10:11:52;;;;;;;3.78;2.15;;;;;;;19.33;44.36;100327.50;5054540;28;20044;-70
2021/05/29 10:14:22;;;;;;;2.85;1.83;;;;;;;19.20;43.73;100326.09;5053900;28;20048;-70
2021/05/29 10:16:50;;;;;;;2.95;1.80;;;;;;;19.48;43.48;100321.59;5054091;28;20481;-71
2021/05/29 10:19:21;;;;;;;4.70;1.88;;;;;;;19.45;43.41;100328.16;5053729;28;20095;-69
2021/05/29 10:21:49;;;;;;;3.05;1.80;;;;;;;19.26;41.33;100325.50;5054054;28;20395;-69
2021/05/29 10:24:19;;;;;;;4.40;2.28;;;;;;;19.43;41.94;100316.63;5053881;28;20048;-71
2021/05/29 10:26:48;;;;;;;3.80;1.90;;;;;;;19.92;41.19;100325.44;5053345;28;20040;-70
2021/05/29 10:29:17;;;;;;;4.07;1.92;;;;;;;19.85;39.88;100327.03;5053514;28;20048;-70
2021/05/29 10:31:46;;;;;;;2.63;1.60;;;;;;;19.77;40.76;100322.34;5053706;28;20052;-70
2021/05/29 10:34:14;;;;;;;2.28;1.50;;;;;;;19.90;41.72;100331.00;5054030;28;20128;-70
2021/05/29 10:36:52;;;;;;;2.92;1.73;;;;;;;20.16;41.33;100320.28;5053687;28;20059;-75
2021/05/29 10:39:23;;;;;;;2.95;1.80;;;;;;;20.43;40.84;100324.84;5053129;28;20045;-71
2021/05/29 10:41:57;;;;;;;3.88;2.00;;;;;;;19.96;40.28;100322.25;5053396;28;20146;-70
2021/05/29 10:44:35;;;;;;;3.45;1.90;;;;;;;20.25;41.58;100310.41;5053516;28;20087;-70
2021/05/29 10:47:08;;;;;;;5.18;2.00;;;;;;;20.58;40.69;100320.59;5053555;28;20037;-68
2021/05/29 10:49:59;;;;;;;3.70;1.80;;;;;;;19.95;39.23;100317.84;5053015;28;20087;-70
2021/05/29 10:52:51;;;;;;;4.50;1.95;;;;;;;19.99;39.29;100316.56;5053105;28;20041;-69
2021/05/29 10:55:27;;;;;;;2.65;1.42;;;;;;;19.68;40.14;100318.69;5053383;28;20049;-76
2021/05/29 10:58:01;;;;;;;5.75;2.20;;;;;;;19.93;40.76;100321.72;5053473;28;20037;-71
2021/05/29 11:01:02;;;;;;;2.03;1.63;;;;;;;19.91;41.79;100316.47;5052958;28;20363;-76
2021/05/29 11:03:30;;;;;;;2.53;1.58;;;;;;;19.89;40.91;100304.09;5053241;28;20044;-74
2021/05/29 11:06:00;;;;;;;3.20;1.55;;;;;;;19.80;40.25;100313.97;5053430;28;20049;-75
2021/05/29 11:08:51;;;;;;;4.72;1.92;;;;;;;20.14;40.20;100313.34;5053524;28;20119;-81
2021/05/29 11:11:56;;;;;;;1.67;1.42;;;;;;;19.65;40.13;100315.44;5054229;28;20383;-74
2021/05/29 11:14:26;;;;;;;2.42;1.60;;;;;;;20.02;39.84;100318.97;5054240;28;20045;-74
2021/05/29 11:17:15;;;;;;;3.90;1.67;;;;;;;20.37;38.52;100311.91;5053358;28;20087;-73
2021/05/29 11:19:59;;;;;;;4.03;1.77;;;;;;;19.93;40.40;100309.03;5052962;28;20041;-73
2021/05/29 11:22:38;;;;;;;3.35;1.80;;;;;;;20.16;39.59;100297.78;5052929;28;20470;-72
2021/05/29 11:25:07;;;;;;;3.90;1.45;;;;;;;20.25;40.16;100308.53;5053113;28;20043;-72
2021/05/29 11:27:38;;;;;;;3.28;1.70;;;;;;;20.01;40.11;100300.16;5052495;28;20490;-74
2021/05/29 11:30:09;;;;;;;2.53;1.23;;;;;;;19.99;39.41;100292.19;5052842;28;20044;-73
2021/05/29 11:32:47;;;;;;;2.58;1.70;;;;;;;20.09;39.11;100294.84;5052753;28;20394;-73
2021/05/29 11:35:35;;;;;;;2.00;1.40;;;;;;;20.14;38.83;100300.63;5052896;28;20433;-74
2021/05/29 11:38:12;;;;;;;3.60;1.48;;;;;;;19.89;38.78;100312.22;5053826;28;20048;-75
2021/05/29 11:40:58;;;;;;;2.97;1.55;;;;;;;19.82;39.66;100306.53;5055432;28;20064;-74
2021/05/29 11:43:41;;;;;;;4.45;1.50;;;;;;;20.09;39.55;100283.16;5056360;28;20467;-71
2021/05/29 11:46:10;;;;;;;2.17;1.23;;;;;;;19.91;38.43;100289.41;5057058;28;20033;-73
2021/05/29 11:48:41;;;;;;;3.20;1.48;;;;;;;20.13;38.12;100281.84;5056987;28;20060;-74